Flight Track Log - Related Links

Times and Time Zones

All times are in EDT time to prevent confusion due to time zone crossing. See the UCA5001 flight status page for this flight to view local times or setup timezone preferences in your user account.

Time Position Orientation Groundspeed Altitude Reporting Facility
EDT Latitude Longitude Course Direction KTS MPH feet Rate Location/Type
Sat 11:43:19 AM 42.7589 -73.8058 209° Southwest 117 135 1,100  Level Boston Center
Sat 11:44:32 AM 42.8025 -73.8211 346° North 157 181 2,700 1,457 Climbing Boston Center
Sat 11:45:39 AM 42.7956 -73.8889 262° West 167 192 4,500 1,594 Climbing Boston Center
Sat 11:46:40 AM 42.7617 -73.9303 222° Southwest 183 211 6,100 1,488 Climbing Boston Center
Sat 11:47:40 AM 42.7092 -73.9575 201° Southwest 186 214 7,500 1,388 Climbing Boston Center
Sat 11:48:00 AM 42.3803 -73.8695 209° Southwest  Level Estimated
Sat 11:48:41 AM 42.6608 -73.9817 200° South 190 219 8,900  Level Boston Center
Sat 11:49:48 AM 42.6083 -74.0086 201° Southwest 193 222 10,000 516 Climbing Boston Center
Sat 11:50:49 AM 42.5456 -74.0353 197° South 240 276 10,000  Level Boston Center
Sat 11:52:32 AM 42.4364 -74.0886 200° South 265 305 10,000  Level Boston Center
Sat 11:53:32 AM 42.3797 -74.1153 199° South 254 292 10,000 50 Level Boston Center
Sat 11:54:32 AM 42.3125 -74.1500 201° Southwest 245 282 10,100  Climbing Boston Center
Sat 11:55:32 AM 42.2558 -74.1764 199° South 239 275 10,000 -50 Descending Boston Center
Sat 11:56:32 AM 42.1886 -74.2167 204° Southwest 239 275 10,000  Level Boston Center
Sat 11:57:32 AM 42.1378 -74.2544 209° Southwest 239 275 10,000 -350 Level Boston Center
Sat 11:58:32 AM 42.0703 -74.3028 208° Southwest 245 282 9,300 -700 Descending Boston Center
Sat 11:59:32 AM 42.0178 -74.3403 208° Southwest 245 282 8,600 -650 Descending Boston Center
Sat 12:00:32 PM 41.9500 -74.3886 208° Southwest 250 288 8,000 -250 Descending Boston Center
Sat 12:01:32 PM 41.8975 -74.4258 208° Southwest 245 282 8,100  Climbing Boston Center
Sat 12:02:44 PM 41.8319 -74.4742 209° Southwest 245 282 8,000 -45 Descending Boston Center
Sat 12:03:44 PM 41.7581 -74.5275 208° Southwest 251 289 8,000  Level Boston Center
Sat 12:04:44 PM 41.6911 -74.5419 189° South 246 283 8,000  Level Boston Center
Sat 12:05:44 PM 41.6200 -74.5533 187° South 251 289 8,000  Level Boston Center
Sat 12:06:44 PM 41.5531 -74.5650 187° South 251 289 8,000 -50 Level Boston Center
Sat 12:07:44 PM 41.4861 -74.5767 187° South 251 289 7,900 -500 Descending Boston Center
Sat 12:08:44 PM 41.4169 -74.5908 189° South 256 295 7,000 -894 Descending Boston Center
Sat 12:09:18 PM 41.3667 -74.6000 188° South 265 305 6,500 -638 Descending New York TRACON
Sat 12:10:18 PM 41.3000 -74.6333 201° Southwest 257 296 6,000 -667 Descending New York TRACON
Sat 12:11:24 PM 41.2333 -74.6333 180° South 247 284 5,100 -905 Descending New York TRACON
Sat 12:12:24 PM 41.1667 -74.6167 169° South 219 252 4,100 -500 Descending New York TRACON
Sat 12:13:24 PM 41.1000 -74.6000 169° South 211 243 4,100  Level New York TRACON
Sat 12:14:24 PM 41.0500 -74.5833 166° South 223 257 4,100 -50 Level New York TRACON
Sat 12:15:24 PM 40.9833 -74.5667 169° South 228 262 4,000  Descending New York TRACON
Sat 12:16:30 PM 40.9167 -74.5333 159° South 228 262 4,100 -300 Climbing New York TRACON
Sat 12:17:24 PM 40.8667 -74.5000 153° Southeast 225 259 3,400 -526 Descending New York TRACON
Sat 12:18:24 PM 40.8167 -74.4833 166° South 219 252 3,100 -300 Descending New York TRACON
Sat 12:19:24 PM 40.7667 -74.4500 153° Southeast 201 231 2,800 -421 Descending New York TRACON
Sat 12:20:18 PM 40.7333 -74.4000 131° Southeast 194 223 2,300 -400 Descending New York TRACON
Sat 12:21:24 PM 40.7167 -74.3333 108° East 160 184 2,000 -286 Descending New York TRACON
Sat 12:22:24 PM 40.7000 -74.2833 114° Southeast 165 190 1,700 -500 Descending New York TRACON
Sat 12:23:24 PM 40.7000 -74.2333 90° East 136 157 1,000 -750 Descending New York TRACON
Sat 12:24:24 PM 40.7000 -74.1833 90° East 109 125 200 -800 Descending New York TRACON

Login

Don't have an account? Register now (free) for customized features, flight alerts, and more!